Tuesday, February 20, 2018, 3:35 PM GMT
Back to Local

CWNE, North Point, Prince Edward Island

Location: , , Canada Lat: 47.083
Local Time: 3:35 PM GMT (15:35 GMT) Lon: -64
Time Zone: GMT Elev: 49 ft

Show me the last for .
Show Coded

Time T Td Feel RH Dir Speed Gust Alt SLP Vis Weather Sky Remarks
2018-02-20 15:00 32 29 22 87 40° 14 - - 30.32 0 None
2018-02-20 14:00 31 29 22 90 20° 12 - - 30.31 0 None
2018-02-20 13:00 33 31 28 92 320° 6 - - 30.30 0 None
2018-02-20 12:00 35 32 31 87 270° 5 - - 30.28 0 None
2018-02-20 11:00 35 32 30 85 280° 7 - - 30.26 0 None
2018-02-20 10:00 34 32 28 92 250° 7 - - 30.25 0 None
2018-02-20 09:00 36 33 30 89 220° 8 - - 30.23 0 None
2018-02-20 08:00 36 33 29 89 210° 9 - - 30.21 0 None
2018-02-20 07:00 37 33 29 86 210° 12 - - 30.21 0 None
2018-02-20 06:00 36 32 29 85 200° 9 - - 30.23 0 None
2018-02-20 05:00 36 33 29 87 210° 10 - - 30.24 0 None
2018-02-20 04:00 36 30 28 79 200° 10 - - 30.24 0 None
2018-02-20 03:00 36 29 29 77 180° 9 - - 30.24 0 None
2018-02-20 02:00 37 29 31 73 190° 8 - - 30.25 0 None
2018-02-20 01:00 36 29 26 74 200° 12 18 - 30.27 0 Peak wind: 19 mph (17 kts) from 190° at 13 min
2018-02-20 00:00 36 28 28 73 190° 13 - - 30.27 0 Peak wind: 20 mph (18 kts) from 190° at 00 min
2018-02-19 23:00 37 28 28 70 200° 15 - - 30.28 0 Peak wind: 20 mph (18 kts) from 200° at 41 min
2018-02-19 22:00 33 25 22 71 190° 12 18 - 30.29 0 Peak wind: 23 mph (20 kts) from 200° at 27 min
2018-02-19 21:00 37 23 30 58 190° 9 - - 30.30 0 Peak wind: 19 mph (17 kts) from 210° at 03 min
2018-02-19 20:00 37 21 29 51 210° 14 - - 30.32 0 Peak wind: 24 mph (21 kts) from 210° at 39 min
2018-02-19 19:00 37 19 28 48 200° 13 - - 30.34 0 Peak wind: 23 mph (20 kts) from 200° at 46 min
2018-02-19 18:00 35 19 23 52 200° 14 22 - 30.38 0 Peak wind: 21 mph (19 kts) from 210° at 53 min
1-hr Precip Total: 0.01"
2018-02-19 17:00 34 17 25 50 200° 12 - - 30.44 0 None
2018-02-19 16:00 28 21 22 72 230° 6 - - 30.47 0 None

Support USWX by starting your Amazon purchase here.